sensor_id;sensor_type;location;lat;lon;timestamp;P1;durP1;ratioP1;P2;durP2;ratioP2
5591;SDS011;2818;49.790;9.958;2022-10-24T00:01:11;7.60;;;3.50;;
5591;SDS011;2818;49.790;9.958;2022-10-24T00:03:41;3.97;;;2.90;;
5591;SDS011;2818;49.790;9.958;2022-10-24T00:06:08;7.80;;;3.60;;
5591;SDS011;2818;49.790;9.958;2022-10-24T00:08:37;3.87;;;3.20;;
5591;SDS011;2818;49.790;9.958;2022-10-24T00:11:12;4.00;;;3.30;;
5591;SDS011;2818;49.790;9.958;2022-10-24T00:13:41;4.93;;;3.00;;
5591;SDS011;2818;49.790;9.958;2022-10-24T00:16:09;3.47;;;2.70;;
5591;SDS011;2818;49.790;9.958;2022-10-24T00:18:37;6.23;;;3.17;;
5591;SDS011;2818;49.790;9.958;2022-10-24T00:21:04;3.20;;;2.90;;
5591;SDS011;2818;49.790;9.958;2022-10-24T00:23:31;6.33;;;3.10;;
5591;SDS011;2818;49.790;9.958;2022-10-24T00:25:58;3.33;;;2.60;;
5591;SDS011;2818;49.790;9.958;2022-10-24T00:28:27;7.67;;;2.90;;
5591;SDS011;2818;49.790;9.958;2022-10-24T00:30:55;3.90;;;3.20;;
5591;SDS011;2818;49.790;9.958;2022-10-24T00:33:22;5.13;;;2.93;;
5591;SDS011;2818;49.790;9.958;2022-10-24T00:35:49;3.43;;;3.00;;
5591;SDS011;2818;49.790;9.958;2022-10-24T00:38:16;3.90;;;2.80;;
5591;SDS011;2818;49.790;9.958;2022-10-24T00:40:43;5.53;;;3.63;;
5591;SDS011;2818;49.790;9.958;2022-10-24T00:43:17;3.83;;;2.93;;
5591;SDS011;2818;49.790;9.958;2022-10-24T00:45:54;10.30;;;2.80;;
5591;SDS011;2818;49.790;9.958;2022-10-24T00:48:24;3.70;;;3.40;;
5591;SDS011;2818;49.790;9.958;2022-10-24T00:50:56;3.33;;;3.03;;
5591;SDS011;2818;49.790;9.958;2022-10-24T00:53:25;3.77;;;2.70;;
5591;SDS011;2818;49.790;9.958;2022-10-24T00:55:55;4.80;;;2.73;;
5591;SDS011;2818;49.790;9.958;2022-10-24T00:58:25;5.20;;;2.83;;
5591;SDS011;2818;49.790;9.958;2022-10-24T01:00:55;2.93;;;2.60;;
5591;SDS011;2818;49.790;9.958;2022-10-24T01:03:22;5.33;;;2.80;;
5591;SDS011;2818;49.790;9.958;2022-10-24T01:16:47;3.33;;;2.57;;
5591;SDS011;2818;49.790;9.958;2022-10-24T01:22:18;3.60;;;2.97;;
5591;SDS011;2818;49.790;9.958;2022-10-24T01:24:55;4.90;;;3.20;;
5591;SDS011;2818;49.790;9.958;2022-10-24T01:27:47;9.47;;;3.20;;
5591;SDS011;2818;49.790;9.958;2022-10-24T01:30:27;8.50;;;3.33;;
5591;SDS011;2818;49.790;9.958;2022-10-24T01:32:57;5.07;;;3.43;;
5591;SDS011;2818;49.790;9.958;2022-10-24T01:35:46;7.60;;;3.53;;
5591;SDS011;2818;49.790;9.958;2022-10-24T01:38:25;10.70;;;3.43;;
5591;SDS011;2818;49.790;9.958;2022-10-24T01:41:05;6.60;;;3.70;;
5591;SDS011;2818;49.790;9.958;2022-10-24T01:43:35;12.33;;;3.10;;
5591;SDS011;2818;49.790;9.958;2022-10-24T01:46:09;12.83;;;3.67;;
5591;SDS011;2818;49.790;9.958;2022-10-24T01:48:39;12.10;;;3.90;;
5591;SDS011;2818;49.790;9.958;2022-10-24T01:51:11;18.87;;;7.63;;
5591;SDS011;2818;49.790;9.958;2022-10-24T01:53:42;7.83;;;3.60;;
5591;SDS011;2818;49.790;9.958;2022-10-24T01:56:10;8.70;;;3.83;;
5591;SDS011;2818;49.790;9.958;2022-10-24T01:58:37;13.10;;;4.03;;
5591;SDS011;2818;49.790;9.958;2022-10-24T02:01:05;6.07;;;2.97;;
5591;SDS011;2818;49.790;9.958;2022-10-24T02:03:46;6.97;;;3.00;;
5591;SDS011;2818;49.790;9.958;2022-10-24T02:06:18;7.47;;;3.47;;
5591;SDS011;2818;49.790;9.958;2022-10-24T02:08:53;9.57;;;3.43;;
5591;SDS011;2818;49.790;9.958;2022-10-24T02:11:24;10.67;;;3.47;;
5591;SDS011;2818;49.790;9.958;2022-10-24T02:14:37;6.57;;;2.90;;
5591;SDS011;2818;49.790;9.958;2022-10-24T02:16:42;5.63;;;3.80;;
5591;SDS011;2818;49.790;9.958;2022-10-24T02:19:10;9.30;;;3.30;;
5591;SDS011;2818;49.790;9.958;2022-10-24T02:24:28;8.20;;;3.20;;
5591;SDS011;2818;49.790;9.958;2022-10-24T02:27:07;10.87;;;3.40;;
5591;SDS011;2818;49.790;9.958;2022-10-24T02:32:15;5.67;;;3.03;;
5591;SDS011;2818;49.790;9.958;2022-10-24T02:34:54;9.23;;;3.40;;
5591;SDS011;2818;49.790;9.958;2022-10-24T02:37:23;7.63;;;3.37;;
5591;SDS011;2818;49.790;9.958;2022-10-24T02:39:51;7.80;;;4.10;;
5591;SDS011;2818;49.790;9.958;2022-10-24T02:42:21;4.83;;;3.40;;
5591;SDS011;2818;49.790;9.958;2022-10-24T02:44:50;8.50;;;3.50;;
5591;SDS011;2818;49.790;9.958;2022-10-24T02:47:18;5.00;;;3.40;;
5591;SDS011;2818;49.790;9.958;2022-10-24T02:49:47;8.73;;;3.30;;
5591;SDS011;2818;49.790;9.958;2022-10-24T02:52:14;3.90;;;3.43;;
5591;SDS011;2818;49.790;9.958;2022-10-24T02:54:41;4.07;;;3.57;;
5591;SDS011;2818;49.790;9.958;2022-10-24T02:57:08;6.03;;;3.57;;
5591;SDS011;2818;49.790;9.958;2022-10-24T02:59:35;21.87;;;12.00;;
5591;SDS011;2818;49.790;9.958;2022-10-24T03:02:02;11.00;;;4.50;;
5591;SDS011;2818;49.790;9.958;2022-10-24T03:04:29;6.47;;;3.60;;
5591;SDS011;2818;49.790;9.958;2022-10-24T03:06:56;8.07;;;3.80;;
5591;SDS011;2818;49.790;9.958;2022-10-24T03:09:22;4.23;;;3.00;;
5591;SDS011;2818;49.790;9.958;2022-10-24T03:11:49;10.00;;;2.97;;
5591;SDS011;2818;49.790;9.958;2022-10-24T03:14:16;7.13;;;2.50;;
5591;SDS011;2818;49.790;9.958;2022-10-24T03:16:43;7.60;;;2.40;;
5591;SDS011;2818;49.790;9.958;2022-10-24T03:19:10;3.63;;;2.43;;
5591;SDS011;2818;49.790;9.958;2022-10-24T03:21:37;3.67;;;2.40;;
5591;SDS011;2818;49.790;9.958;2022-10-24T03:24:05;10.70;;;2.63;;
5591;SDS011;2818;49.790;9.958;2022-10-24T03:26:33;7.77;;;2.43;;
5591;SDS011;2818;49.790;9.958;2022-10-24T03:29:00;6.13;;;2.03;;
5591;SDS011;2818;49.790;9.958;2022-10-24T03:31:27;11.53;;;2.13;;
5591;SDS011;2818;49.790;9.958;2022-10-24T03:33:53;4.10;;;2.20;;
5591;SDS011;2818;49.790;9.958;2022-10-24T03:36:20;9.30;;;2.00;;
5591;SDS011;2818;49.790;9.958;2022-10-24T03:38:47;8.07;;;1.93;;
5591;SDS011;2818;49.790;9.958;2022-10-24T03:41:14;4.80;;;2.47;;
5591;SDS011;2818;49.790;9.958;2022-10-24T03:43:41;2.10;;;1.93;;
5591;SDS011;2818;49.790;9.958;2022-10-24T03:46:08;8.87;;;2.00;;
5591;SDS011;2818;49.790;9.958;2022-10-24T03:48:35;1.90;;;1.70;;
5591;SDS011;2818;49.790;9.958;2022-10-24T03:51:02;3.77;;;2.10;;
5591;SDS011;2818;49.790;9.958;2022-10-24T03:53:29;8.73;;;2.60;;
5591;SDS011;2818;49.790;9.958;2022-10-24T03:55:56;6.03;;;2.50;;
5591;SDS011;2818;49.790;9.958;2022-10-24T03:58:23;7.40;;;1.60;;
5591;SDS011;2818;49.790;9.958;2022-10-24T04:00:50;5.90;;;1.53;;
5591;SDS011;2818;49.790;9.958;2022-10-24T04:03:17;5.77;;;2.50;;
5591;SDS011;2818;49.790;9.958;2022-10-24T04:05:44;5.70;;;2.07;;
5591;SDS011;2818;49.790;9.958;2022-10-24T04:08:10;6.40;;;1.70;;
5591;SDS011;2818;49.790;9.958;2022-10-24T04:10:37;6.13;;;1.90;;
5591;SDS011;2818;49.790;9.958;2022-10-24T04:13:04;7.10;;;2.07;;
5591;SDS011;2818;49.790;9.958;2022-10-24T04:15:31;6.43;;;1.90;;
5591;SDS011;2818;49.790;9.958;2022-10-24T04:17:58;4.30;;;1.90;;
5591;SDS011;2818;49.790;9.958;2022-10-24T04:20:25;6.50;;;1.77;;
5591;SDS011;2818;49.790;9.958;2022-10-24T04:22:52;4.53;;;1.87;;
5591;SDS011;2818;49.790;9.958;2022-10-24T04:25:19;6.23;;;1.50;;
5591;SDS011;2818;49.790;9.958;2022-10-24T04:27:46;4.83;;;1.70;;
5591;SDS011;2818;49.790;9.958;2022-10-24T04:30:13;3.37;;;1.77;;
5591;SDS011;2818;49.790;9.958;2022-10-24T04:32:42;2.17;;;1.80;;
5591;SDS011;2818;49.790;9.958;2022-10-24T04:35:09;4.67;;;2.47;;
5591;SDS011;2818;49.790;9.958;2022-10-24T04:37:36;7.40;;;2.00;;
5591;SDS011;2818;49.790;9.958;2022-10-24T04:40:03;2.93;;;1.87;;
5591;SDS011;2818;49.790;9.958;2022-10-24T04:42:31;4.33;;;1.93;;
5591;SDS011;2818;49.790;9.958;2022-10-24T04:44:58;7.03;;;1.73;;
5591;SDS011;2818;49.790;9.958;2022-10-24T04:47:24;7.37;;;2.50;;
5591;SDS011;2818;49.790;9.958;2022-10-24T04:49:51;3.30;;;2.20;;
5591;SDS011;2818;49.790;9.958;2022-10-24T04:52:18;5.53;;;2.00;;
5591;SDS011;2818;49.790;9.958;2022-10-24T04:54:45;7.73;;;1.77;;
5591;SDS011;2818;49.790;9.958;2022-10-24T04:57:12;3.33;;;2.03;;
5591;SDS011;2818;49.790;9.958;2022-10-24T04:59:39;9.67;;;2.00;;
5591;SDS011;2818;49.790;9.958;2022-10-24T05:02:05;6.27;;;1.80;;
5591;SDS011;2818;49.790;9.958;2022-10-24T05:04:33;4.03;;;2.00;;
5591;SDS011;2818;49.790;9.958;2022-10-24T05:06:59;10.97;;;2.43;;
5591;SDS011;2818;49.790;9.958;2022-10-24T05:09:26;8.73;;;2.17;;
5591;SDS011;2818;49.790;9.958;2022-10-24T05:11:54;2.63;;;1.70;;
5591;SDS011;2818;49.790;9.958;2022-10-24T05:14:22;3.73;;;2.10;;
5591;SDS011;2818;49.790;9.958;2022-10-24T05:16:50;2.67;;;2.03;;
5591;SDS011;2818;49.790;9.958;2022-10-24T05:19:16;3.50;;;1.80;;
5591;SDS011;2818;49.790;9.958;2022-10-24T05:21:44;4.13;;;2.00;;
5591;SDS011;2818;49.790;9.958;2022-10-24T05:24:11;3.50;;;2.00;;
5591;SDS011;2818;49.790;9.958;2022-10-24T05:26:38;3.03;;;2.73;;
5591;SDS011;2818;49.790;9.958;2022-10-24T05:29:05;6.70;;;2.20;;
5591;SDS011;2818;49.790;9.958;2022-10-24T05:31:37;6.07;;;2.10;;
5591;SDS011;2818;49.790;9.958;2022-10-24T05:34:04;5.70;;;2.20;;
5591;SDS011;2818;49.790;9.958;2022-10-24T05:36:31;6.03;;;3.00;;
5591;SDS011;2818;49.790;9.958;2022-10-24T05:38:58;4.20;;;2.60;;
5591;SDS011;2818;49.790;9.958;2022-10-24T05:41:24;5.83;;;2.20;;
5591;SDS011;2818;49.790;9.958;2022-10-24T05:43:51;5.60;;;2.57;;
5591;SDS011;2818;49.790;9.958;2022-10-24T05:46:18;7.63;;;2.80;;
5591;SDS011;2818;49.790;9.958;2022-10-24T05:48:45;4.80;;;2.40;;
5591;SDS011;2818;49.790;9.958;2022-10-24T05:51:12;9.17;;;2.40;;
5591;SDS011;2818;49.790;9.958;2022-10-24T05:53:39;2.80;;;2.00;;
5591;SDS011;2818;49.790;9.958;2022-10-24T05:56:06;5.90;;;2.90;;
5591;SDS011;2818;49.790;9.958;2022-10-24T05:58:33;7.97;;;3.10;;
5591;SDS011;2818;49.790;9.958;2022-10-24T06:01:00;12.77;;;3.70;;
5591;SDS011;2818;49.790;9.958;2022-10-24T06:03:27;9.80;;;3.80;;
5591;SDS011;2818;49.790;9.958;2022-10-24T06:05:54;6.23;;;4.00;;
5591;SDS011;2818;49.790;9.958;2022-10-24T06:08:21;9.30;;;5.03;;
5591;SDS011;2818;49.790;9.958;2022-10-24T06:10:48;10.73;;;8.00;;
5591;SDS011;2818;49.790;9.958;2022-10-24T06:13:16;11.27;;;4.03;;
5591;SDS011;2818;49.790;9.958;2022-10-24T06:15:43;13.60;;;3.47;;
5591;SDS011;2818;49.790;9.958;2022-10-24T06:18:10;4.07;;;2.97;;
5591;SDS011;2818;49.790;9.958;2022-10-24T06:20:37;5.53;;;2.43;;
5591;SDS011;2818;49.790;9.958;2022-10-24T06:23:04;6.33;;;2.40;;
5591;SDS011;2818;49.790;9.958;2022-10-24T06:25:31;11.00;;;3.13;;
5591;SDS011;2818;49.790;9.958;2022-10-24T06:27:58;4.70;;;2.20;;
5591;SDS011;2818;49.790;9.958;2022-10-24T06:30:25;2.70;;;2.50;;
5591;SDS011;2818;49.790;9.958;2022-10-24T06:32:53;5.73;;;3.00;;
5591;SDS011;2818;49.790;9.958;2022-10-24T06:35:19;3.63;;;1.90;;
5591;SDS011;2818;49.790;9.958;2022-10-24T06:37:46;5.70;;;2.30;;
5591;SDS011;2818;49.790;9.958;2022-10-24T06:40:14;5.47;;;2.57;;
5591;SDS011;2818;49.790;9.958;2022-10-24T06:42:42;7.43;;;2.83;;
5591;SDS011;2818;49.790;9.958;2022-10-24T06:45:09;9.30;;;3.13;;
5591;SDS011;2818;49.790;9.958;2022-10-24T06:47:37;7.60;;;2.97;;
5591;SDS011;2818;49.790;9.958;2022-10-24T06:50:04;5.37;;;3.43;;
5591;SDS011;2818;49.790;9.958;2022-10-24T06:52:32;6.97;;;3.30;;
5591;SDS011;2818;49.790;9.958;2022-10-24T06:54:59;9.03;;;3.50;;
5591;SDS011;2818;49.790;9.958;2022-10-24T06:57:25;10.43;;;3.27;;
5591;SDS011;2818;49.790;9.958;2022-10-24T06:59:52;8.10;;;2.77;;
5591;SDS011;2818;49.790;9.958;2022-10-24T07:02:19;8.60;;;3.37;;
5591;SDS011;2818;49.790;9.958;2022-10-24T07:04:46;6.97;;;2.63;;
5591;SDS011;2818;49.790;9.958;2022-10-24T07:07:14;7.67;;;2.70;;
5591;SDS011;2818;49.790;9.958;2022-10-24T07:09:53;9.00;;;2.97;;
5591;SDS011;2818;49.790;9.958;2022-10-24T07:12:22;6.73;;;2.50;;
5591;SDS011;2818;49.790;9.958;2022-10-24T07:14:50;9.07;;;2.80;;
5591;SDS011;2818;49.790;9.958;2022-10-24T07:17:18;7.87;;;3.00;;
5591;SDS011;2818;49.790;9.958;2022-10-24T07:19:50;7.20;;;2.57;;
5591;SDS011;2818;49.790;9.958;2022-10-24T07:22:18;8.23;;;2.80;;
5591;SDS011;2818;49.790;9.958;2022-10-24T07:24:45;7.40;;;2.70;;
5591;SDS011;2818;49.790;9.958;2022-10-24T07:27:17;6.57;;;2.70;;
5591;SDS011;2818;49.790;9.958;2022-10-24T07:29:44;6.73;;;2.70;;
5591;SDS011;2818;49.790;9.958;2022-10-24T07:32:11;7.70;;;2.87;;
5591;SDS011;2818;49.790;9.958;2022-10-24T07:34:38;7.03;;;2.80;;
5591;SDS011;2818;49.790;9.958;2022-10-24T07:37:06;10.13;;;2.93;;
5591;SDS011;2818;49.790;9.958;2022-10-24T07:39:33;7.40;;;2.80;;
5591;SDS011;2818;49.790;9.958;2022-10-24T07:42:00;6.10;;;3.03;;
5591;SDS011;2818;49.790;9.958;2022-10-24T07:44:27;14.20;;;3.77;;
5591;SDS011;2818;49.790;9.958;2022-10-24T07:46:54;10.80;;;3.20;;
5591;SDS011;2818;49.790;9.958;2022-10-24T07:49:21;7.27;;;3.10;;
5591;SDS011;2818;49.790;9.958;2022-10-24T07:51:48;13.43;;;3.77;;
5591;SDS011;2818;49.790;9.958;2022-10-24T07:54:15;7.57;;;2.97;;
5591;SDS011;2818;49.790;9.958;2022-10-24T07:56:42;8.63;;;3.10;;
5591;SDS011;2818;49.790;9.958;2022-10-24T07:59:09;12.30;;;2.73;;
5591;SDS011;2818;49.790;9.958;2022-10-24T08:01:55;6.50;;;2.37;;
5591;SDS011;2818;49.790;9.958;2022-10-24T08:04:22;10.13;;;3.20;;
5591;SDS011;2818;49.790;9.958;2022-10-24T08:06:49;5.10;;;2.50;;
5591;SDS011;2818;49.790;9.958;2022-10-24T08:09:16;6.43;;;2.43;;
5591;SDS011;2818;49.790;9.958;2022-10-24T08:11:43;5.33;;;2.30;;
5591;SDS011;2818;49.790;9.958;2022-10-24T08:14:10;4.07;;;2.33;;
5591;SDS011;2818;49.790;9.958;2022-10-24T08:16:37;4.97;;;2.80;;
5591;SDS011;2818;49.790;9.958;2022-10-24T08:19:07;8.23;;;2.80;;
5591;SDS011;2818;49.790;9.958;2022-10-24T08:21:34;4.97;;;2.30;;
5591;SDS011;2818;49.790;9.958;2022-10-24T08:24:01;4.13;;;2.43;;
5591;SDS011;2818;49.790;9.958;2022-10-24T08:26:28;5.70;;;2.87;;
5591;SDS011;2818;49.790;9.958;2022-10-24T08:28:55;4.50;;;2.50;;
5591;SDS011;2818;49.790;9.958;2022-10-24T08:31:23;5.63;;;2.70;;
5591;SDS011;2818;49.790;9.958;2022-10-24T08:33:52;4.20;;;2.20;;
5591;SDS011;2818;49.790;9.958;2022-10-24T08:36:22;3.97;;;2.47;;
5591;SDS011;2818;49.790;9.958;2022-10-24T08:38:50;4.30;;;2.50;;
5591;SDS011;2818;49.790;9.958;2022-10-24T08:41:21;5.20;;;2.60;;
5591;SDS011;2818;49.790;9.958;2022-10-24T08:43:50;3.90;;;2.20;;
5591;SDS011;2818;49.790;9.958;2022-10-24T08:46:26;5.33;;;2.60;;
5591;SDS011;2818;49.790;9.958;2022-10-24T08:49:21;6.83;;;2.50;;
5591;SDS011;2818;49.790;9.958;2022-10-24T08:54:35;5.00;;;2.10;;
5591;SDS011;2818;49.790;9.958;2022-10-24T08:57:05;4.43;;;2.40;;
5591;SDS011;2818;49.790;9.958;2022-10-24T08:59:35;4.37;;;2.40;;
5591;SDS011;2818;49.790;9.958;2022-10-24T09:02:14;12.87;;;3.13;;
5591;SDS011;2818;49.790;9.958;2022-10-24T09:04:50;6.97;;;2.80;;
5591;SDS011;2818;49.790;9.958;2022-10-24T09:07:19;4.53;;;2.37;;
5591;SDS011;2818;49.790;9.958;2022-10-24T09:10:05;4.73;;;2.40;;
5591;SDS011;2818;49.790;9.958;2022-10-24T09:12:42;4.90;;;2.27;;
5591;SDS011;2818;49.790;9.958;2022-10-24T09:15:23;3.33;;;2.17;;
5591;SDS011;2818;49.790;9.958;2022-10-24T09:17:54;5.53;;;2.40;;
5591;SDS011;2818;49.790;9.958;2022-10-24T09:20:24;6.27;;;2.23;;
5591;SDS011;2818;49.790;9.958;2022-10-24T09:22:52;6.87;;;2.20;;
5591;SDS011;2818;49.790;9.958;2022-10-24T09:25:23;4.23;;;2.87;;
5591;SDS011;2818;49.790;9.958;2022-10-24T09:27:56;4.93;;;2.53;;
5591;SDS011;2818;49.790;9.958;2022-10-24T09:30:24;7.17;;;2.70;;
5591;SDS011;2818;49.790;9.958;2022-10-24T09:32:58;3.13;;;2.27;;
5591;SDS011;2818;49.790;9.958;2022-10-24T09:35:32;4.33;;;2.43;;
5591;SDS011;2818;49.790;9.958;2022-10-24T09:40:52;8.57;;;2.43;;
5591;SDS011;2818;49.790;9.958;2022-10-24T09:46:22;9.30;;;2.73;;
5591;SDS011;2818;49.790;9.958;2022-10-24T09:51:49;6.33;;;2.40;;
5591;SDS011;2818;49.790;9.958;2022-10-24T09:54:26;4.73;;;2.60;;
5591;SDS011;2818;49.790;9.958;2022-10-24T10:01:52;4.70;;;3.00;;
5591;SDS011;2818;49.790;9.958;2022-10-24T10:04:19;5.93;;;2.40;;
5591;SDS011;2818;49.790;9.958;2022-10-24T10:06:47;5.30;;;3.20;;
5591;SDS011;2818;49.790;9.958;2022-10-24T10:09:22;7.33;;;2.80;;
5591;SDS011;2818;49.790;9.958;2022-10-24T10:11:55;10.27;;;3.20;;
5591;SDS011;2818;49.790;9.958;2022-10-24T10:14:28;3.70;;;2.67;;
5591;SDS011;2818;49.790;9.958;2022-10-24T10:17:02;12.00;;;2.47;;
5591;SDS011;2818;49.790;9.958;2022-10-24T10:19:34;5.63;;;2.20;;
5591;SDS011;2818;49.790;9.958;2022-10-24T10:22:08;6.80;;;2.73;;
5591;SDS011;2818;49.790;9.958;2022-10-24T10:24:57;4.70;;;2.07;;
5591;SDS011;2818;49.790;9.958;2022-10-24T10:27:40;7.30;;;2.70;;
5591;SDS011;2818;49.790;9.958;2022-10-24T10:40:56;7.53;;;2.90;;
5591;SDS011;2818;49.790;9.958;2022-10-24T10:43:42;8.10;;;3.03;;
5591;SDS011;2818;49.790;9.958;2022-10-24T10:46:22;5.00;;;2.83;;
5591;SDS011;2818;49.790;9.958;2022-10-24T10:51:49;5.10;;;2.70;;
5591;SDS011;2818;49.790;9.958;2022-10-24T11:11:11;7.20;;;2.60;;
5591;SDS011;2818;49.790;9.958;2022-10-24T11:13:50;5.30;;;2.90;;
5591;SDS011;2818;49.790;9.958;2022-10-24T11:16:20;8.10;;;3.07;;
5591;SDS011;2818;49.790;9.958;2022-10-24T11:18:52;10.67;;;3.00;;
5591;SDS011;2818;49.790;9.958;2022-10-24T11:21:28;3.67;;;2.50;;
5591;SDS011;2818;49.790;9.958;2022-10-24T11:29:30;7.50;;;3.00;;
5591;SDS011;2818;49.790;9.958;2022-10-24T11:34:46;8.57;;;3.23;;
5591;SDS011;2818;49.790;9.958;2022-10-24T11:37:25;5.30;;;2.87;;
5591;SDS011;2818;49.790;9.958;2022-10-24T11:40:12;9.93;;;3.13;;
5591;SDS011;2818;49.790;9.958;2022-10-24T11:45:11;6.43;;;3.40;;
5591;SDS011;2818;49.790;9.958;2022-10-24T11:47:42;6.33;;;3.87;;
5591;SDS011;2818;49.790;9.958;2022-10-24T11:52:58;5.40;;;3.80;;
5591;SDS011;2818;49.790;9.958;2022-10-24T11:55:55;10.00;;;4.07;;
5591;SDS011;2818;49.790;9.958;2022-10-24T11:58:25;3.53;;;3.23;;
5591;SDS011;2818;49.790;9.958;2022-10-24T12:01:02;7.87;;;4.00;;
5591;SDS011;2818;49.790;9.958;2022-10-24T12:15:06;6.30;;;3.13;;
5591;SDS011;2818;49.790;9.958;2022-10-24T12:20:38;2.97;;;2.70;;
5591;SDS011;2818;49.790;9.958;2022-10-24T12:23:06;4.07;;;3.00;;
5591;SDS011;2818;49.790;9.958;2022-10-24T12:25:45;4.20;;;3.80;;
5591;SDS011;2818;49.790;9.958;2022-10-24T12:28:18;10.50;;;3.00;;
5591;SDS011;2818;49.790;9.958;2022-10-24T12:31:07;6.33;;;3.77;;
5591;SDS011;2818;49.790;9.958;2022-10-24T12:33:41;13.60;;;5.53;;
5591;SDS011;2818;49.790;9.958;2022-10-24T12:36:09;10.40;;;3.90;;
5591;SDS011;2818;49.790;9.958;2022-10-24T12:41:04;4.33;;;3.00;;
5591;SDS011;2818;49.790;9.958;2022-10-24T12:43:41;2.60;;;2.40;;
5591;SDS011;2818;49.790;9.958;2022-10-24T12:51:34;4.97;;;2.60;;
5591;SDS011;2818;49.790;9.958;2022-10-24T12:59:19;4.97;;;2.80;;
5591;SDS011;2818;49.790;9.958;2022-10-24T13:21:27;8.13;;;2.97;;
5591;SDS011;2818;49.790;9.958;2022-10-24T13:37:27;3.67;;;2.80;;
5591;SDS011;2818;49.790;9.958;2022-10-24T13:42:47;5.30;;;2.60;;
5591;SDS011;2818;49.790;9.958;2022-10-24T13:48:04;3.73;;;2.33;;
5591;SDS011;2818;49.790;9.958;2022-10-24T13:51:28;5.03;;;2.53;;
5591;SDS011;2818;49.790;9.958;2022-10-24T13:53:42;2.87;;;2.53;;
5591;SDS011;2818;49.790;9.958;2022-10-24T13:56:12;3.10;;;2.50;;
5591;SDS011;2818;49.790;9.958;2022-10-24T13:58:41;8.53;;;2.43;;
5591;SDS011;2818;49.790;9.958;2022-10-24T14:01:20;9.97;;;2.53;;
5591;SDS011;2818;49.790;9.958;2022-10-24T14:03:53;5.07;;;2.47;;
5591;SDS011;2818;49.790;9.958;2022-10-24T14:06:22;8.73;;;2.57;;
5591;SDS011;2818;49.790;9.958;2022-10-24T14:08:51;2.40;;;2.20;;
5591;SDS011;2818;49.790;9.958;2022-10-24T14:11:31;5.90;;;2.50;;
5591;SDS011;2818;49.790;9.958;2022-10-24T14:13:59;8.60;;;2.87;;
5591;SDS011;2818;49.790;9.958;2022-10-24T14:16:33;4.57;;;2.50;;
5591;SDS011;2818;49.790;9.958;2022-10-24T14:21:56;7.60;;;2.80;;
5591;SDS011;2818;49.790;9.958;2022-10-24T14:24:24;5.77;;;2.47;;
5591;SDS011;2818;49.790;9.958;2022-10-24T14:26:51;7.60;;;2.47;;
5591;SDS011;2818;49.790;9.958;2022-10-24T14:31:54;5.87;;;2.80;;
5591;SDS011;2818;49.790;9.958;2022-10-24T14:34:23;5.10;;;2.77;;
5591;SDS011;2818;49.790;9.958;2022-10-24T14:36:50;9.10;;;2.10;;
5591;SDS011;2818;49.790;9.958;2022-10-24T14:39:19;8.83;;;2.80;;
5591;SDS011;2818;49.790;9.958;2022-10-24T14:41:49;7.30;;;2.43;;
5591;SDS011;2818;49.790;9.958;2022-10-24T14:44:18;4.47;;;2.63;;
5591;SDS011;2818;49.790;9.958;2022-10-24T14:47:00;5.53;;;2.63;;
5591;SDS011;2818;49.790;9.958;2022-10-24T14:49:32;4.30;;;3.00;;
5591;SDS011;2818;49.790;9.958;2022-10-24T14:52:08;4.13;;;2.30;;
5591;SDS011;2818;49.790;9.958;2022-10-24T14:54:37;5.07;;;2.67;;
5591;SDS011;2818;49.790;9.958;2022-10-24T14:57:18;5.03;;;2.50;;
5591;SDS011;2818;49.790;9.958;2022-10-24T14:59:47;8.83;;;2.70;;
5591;SDS011;2818;49.790;9.958;2022-10-24T15:02:28;2.83;;;2.20;;
5591;SDS011;2818;49.790;9.958;2022-10-24T15:07:51;3.50;;;2.10;;
5591;SDS011;2818;49.790;9.958;2022-10-24T15:10:47;2.53;;;2.23;;
5591;SDS011;2818;49.790;9.958;2022-10-24T15:13:18;7.77;;;2.70;;
5591;SDS011;2818;49.790;9.958;2022-10-24T15:15:53;3.47;;;2.73;;
5591;SDS011;2818;49.790;9.958;2022-10-24T15:18:41;8.17;;;3.70;;
5591;SDS011;2818;49.790;9.958;2022-10-24T15:21:12;8.50;;;4.57;;
5591;SDS011;2818;49.790;9.958;2022-10-24T15:23:49;8.20;;;3.70;;
5591;SDS011;2818;49.790;9.958;2022-10-24T15:26:22;6.37;;;3.23;;
5591;SDS011;2818;49.790;9.958;2022-10-24T15:28:54;4.73;;;3.13;;
5591;SDS011;2818;49.790;9.958;2022-10-24T15:31:36;4.60;;;2.83;;
5591;SDS011;2818;49.790;9.958;2022-10-24T15:34:04;4.53;;;3.30;;
5591;SDS011;2818;49.790;9.958;2022-10-24T15:36:34;9.37;;;2.80;;
5591;SDS011;2818;49.790;9.958;2022-10-24T15:39:06;6.03;;;2.60;;
5591;SDS011;2818;49.790;9.958;2022-10-24T15:41:36;6.93;;;2.93;;
5591;SDS011;2818;49.790;9.958;2022-10-24T15:44:05;3.37;;;3.00;;
5591;SDS011;2818;49.790;9.958;2022-10-24T15:46:42;6.07;;;3.10;;
5591;SDS011;2818;49.790;9.958;2022-10-24T15:49:13;8.63;;;2.97;;
5591;SDS011;2818;49.790;9.958;2022-10-24T15:51:41;9.00;;;4.27;;
5591;SDS011;2818;49.790;9.958;2022-10-24T15:54:16;5.43;;;3.50;;
5591;SDS011;2818;49.790;9.958;2022-10-24T15:56:45;6.43;;;3.43;;
5591;SDS011;2818;49.790;9.958;2022-10-24T15:59:12;7.30;;;4.20;;
5591;SDS011;2818;49.790;9.958;2022-10-24T16:01:40;6.27;;;5.50;;
5591;SDS011;2818;49.790;9.958;2022-10-24T16:04:12;7.97;;;5.07;;
5591;SDS011;2818;49.790;9.958;2022-10-24T16:06:40;5.33;;;3.50;;
5591;SDS011;2818;49.790;9.958;2022-10-24T16:09:12;5.80;;;3.60;;
5591;SDS011;2818;49.790;9.958;2022-10-24T16:11:41;7.07;;;3.87;;
5591;SDS011;2818;49.790;9.958;2022-10-24T16:14:12;5.10;;;3.87;;
5591;SDS011;2818;49.790;9.958;2022-10-24T16:16:40;6.17;;;4.83;;
5591;SDS011;2818;49.790;9.958;2022-10-24T16:19:07;5.40;;;4.53;;
5591;SDS011;2818;49.790;9.958;2022-10-24T16:21:37;6.73;;;4.70;;
5591;SDS011;2818;49.790;9.958;2022-10-24T16:24:07;7.77;;;4.10;;
5591;SDS011;2818;49.790;9.958;2022-10-24T16:26:35;7.67;;;4.20;;
5591;SDS011;2818;49.790;9.958;2022-10-24T16:29:03;10.00;;;5.10;;
5591;SDS011;2818;49.790;9.958;2022-10-24T16:31:30;8.27;;;3.87;;
5591;SDS011;2818;49.790;9.958;2022-10-24T16:33:58;6.60;;;4.10;;
5591;SDS011;2818;49.790;9.958;2022-10-24T16:36:25;5.37;;;3.80;;
5591;SDS011;2818;49.790;9.958;2022-10-24T16:38:52;9.80;;;5.00;;
5591;SDS011;2818;49.790;9.958;2022-10-24T16:41:20;6.67;;;4.40;;
5591;SDS011;2818;49.790;9.958;2022-10-24T16:43:49;8.10;;;4.07;;
5591;SDS011;2818;49.790;9.958;2022-10-24T16:46:19;8.13;;;4.43;;
5591;SDS011;2818;49.790;9.958;2022-10-24T16:48:46;9.20;;;5.03;;
5591;SDS011;2818;49.790;9.958;2022-10-24T16:51:20;13.57;;;4.53;;
5591;SDS011;2818;49.790;9.958;2022-10-24T16:53:50;6.30;;;4.60;;
5591;SDS011;2818;49.790;9.958;2022-10-24T16:56:16;10.03;;;5.87;;
5591;SDS011;2818;49.790;9.958;2022-10-24T16:58:43;12.33;;;5.80;;
5591;SDS011;2818;49.790;9.958;2022-10-24T17:01:12;11.13;;;5.83;;
5591;SDS011;2818;49.790;9.958;2022-10-24T17:03:40;5.00;;;4.50;;
5591;SDS011;2818;49.790;9.958;2022-10-24T17:06:09;14.07;;;4.90;;
5591;SDS011;2818;49.790;9.958;2022-10-24T17:08:36;6.90;;;4.70;;
5591;SDS011;2818;49.790;9.958;2022-10-24T17:11:03;5.23;;;4.80;;
5591;SDS011;2818;49.790;9.958;2022-10-24T17:13:50;4.43;;;4.03;;
5591;SDS011;2818;49.790;9.958;2022-10-24T17:16:17;5.57;;;5.00;;
5591;SDS011;2818;49.790;9.958;2022-10-24T17:18:46;7.47;;;5.97;;
5591;SDS011;2818;49.790;9.958;2022-10-24T17:21:31;10.60;;;5.50;;
5591;SDS011;2818;49.790;9.958;2022-10-24T17:23:58;7.90;;;5.87;;
5591;SDS011;2818;49.790;9.958;2022-10-24T17:26:25;6.97;;;5.73;;
5591;SDS011;2818;49.790;9.958;2022-10-24T17:28:53;8.90;;;5.27;;
5591;SDS011;2818;49.790;9.958;2022-10-24T17:31:20;6.97;;;3.67;;
5591;SDS011;2818;49.790;9.958;2022-10-24T17:33:47;5.13;;;3.67;;
5591;SDS011;2818;49.790;9.958;2022-10-24T17:36:22;10.27;;;3.50;;
5591;SDS011;2818;49.790;9.958;2022-10-24T17:41:35;4.43;;;3.47;;
5591;SDS011;2818;49.790;9.958;2022-10-24T17:44:04;5.57;;;4.20;;
5591;SDS011;2818;49.790;9.958;2022-10-24T17:46:32;8.70;;;3.93;;
5591;SDS011;2818;49.790;9.958;2022-10-24T17:48:59;10.10;;;4.03;;
5591;SDS011;2818;49.790;9.958;2022-10-24T17:51:26;3.40;;;3.10;;
5591;SDS011;2818;49.790;9.958;2022-10-24T17:53:53;10.50;;;3.43;;
5591;SDS011;2818;49.790;9.958;2022-10-24T17:56:20;5.90;;;4.00;;
5591;SDS011;2818;49.790;9.958;2022-10-24T17:58:50;5.20;;;3.60;;
5591;SDS011;2818;49.790;9.958;2022-10-24T18:01:17;11.47;;;3.83;;
5591;SDS011;2818;49.790;9.958;2022-10-24T18:03:45;6.00;;;3.60;;
5591;SDS011;2818;49.790;9.958;2022-10-24T18:06:12;8.20;;;3.57;;
5591;SDS011;2818;49.790;9.958;2022-10-24T18:08:40;10.87;;;3.93;;